sensor_id;sensor_type;location;lat;lon;timestamp;P1;durP1;ratioP1;P2;durP2;ratioP2
948;SDS011;461;51.436;7.312;2023-10-31T00:01:07;2.87;;;2.60;;
948;SDS011;461;51.436;7.312;2023-10-31T00:07:05;3.23;;;3.03;;
948;SDS011;461;51.436;7.312;2023-10-31T00:09:31;2.97;;;2.63;;
948;SDS011;461;51.436;7.312;2023-10-31T00:12:02;2.80;;;2.60;;
948;SDS011;461;51.436;7.312;2023-10-31T00:14:29;2.90;;;2.70;;
948;SDS011;461;51.436;7.312;2023-10-31T00:16:55;3.20;;;2.90;;
948;SDS011;461;51.436;7.312;2023-10-31T00:19:39;2.60;;;2.30;;
948;SDS011;461;51.436;7.312;2023-10-31T00:22:29;2.77;;;2.53;;
948;SDS011;461;51.436;7.312;2023-10-31T00:25:33;4.10;;;3.13;;
948;SDS011;461;51.436;7.312;2023-10-31T00:28:19;2.50;;;2.30;;
948;SDS011;461;51.436;7.312;2023-10-31T00:31:28;3.30;;;2.47;;
948;SDS011;461;51.436;7.312;2023-10-31T00:41:07;2.50;;;2.30;;
948;SDS011;461;51.436;7.312;2023-10-31T00:43:37;3.07;;;2.77;;
948;SDS011;461;51.436;7.312;2023-10-31T00:46:11;2.57;;;2.37;;
948;SDS011;461;51.436;7.312;2023-10-31T00:48:49;6.37;;;2.30;;
948;SDS011;461;51.436;7.312;2023-10-31T00:51:21;2.50;;;2.30;;
948;SDS011;461;51.436;7.312;2023-10-31T00:53:50;2.70;;;2.50;;
948;SDS011;461;51.436;7.312;2023-10-31T00:56:16;3.00;;;2.47;;
948;SDS011;461;51.436;7.312;2023-10-31T00:58:42;2.23;;;2.03;;
948;SDS011;461;51.436;7.312;2023-10-31T01:01:14;1.90;;;1.80;;
948;SDS011;461;51.436;7.312;2023-10-31T01:03:43;2.00;;;1.80;;
948;SDS011;461;51.436;7.312;2023-10-31T01:06:12;1.77;;;1.67;;
948;SDS011;461;51.436;7.312;2023-10-31T01:08:41;1.50;;;1.40;;
948;SDS011;461;51.436;7.312;2023-10-31T01:11:20;2.23;;;2.03;;
948;SDS011;461;51.436;7.312;2023-10-31T01:13:49;2.20;;;1.87;;
948;SDS011;461;51.436;7.312;2023-10-31T01:16:21;2.30;;;1.50;;
948;SDS011;461;51.436;7.312;2023-10-31T01:18:50;1.50;;;1.40;;
948;SDS011;461;51.436;7.312;2023-10-31T01:21:19;2.37;;;1.30;;
948;SDS011;461;51.436;7.312;2023-10-31T01:24:27;4.33;;;2.67;;
948;SDS011;461;51.436;7.312;2023-10-31T01:27:36;1.60;;;1.47;;
948;SDS011;461;51.436;7.312;2023-10-31T01:30:24;1.30;;;1.20;;
948;SDS011;461;51.436;7.312;2023-10-31T01:32:56;1.43;;;1.33;;
948;SDS011;461;51.436;7.312;2023-10-31T01:35:36;1.70;;;1.60;;
948;SDS011;461;51.436;7.312;2023-10-31T01:41:05;3.77;;;2.43;;
948;SDS011;461;51.436;7.312;2023-10-31T01:43:57;4.30;;;2.40;;
948;SDS011;461;51.436;7.312;2023-10-31T01:46:52;2.53;;;2.33;;
948;SDS011;461;51.436;7.312;2023-10-31T01:50:02;2.70;;;2.40;;
948;SDS011;461;51.436;7.312;2023-10-31T01:52:37;2.93;;;2.73;;
948;SDS011;461;51.436;7.312;2023-10-31T01:55:14;3.00;;;2.70;;
948;SDS011;461;51.436;7.312;2023-10-31T01:57:49;4.33;;;2.80;;
948;SDS011;461;51.436;7.312;2023-10-31T02:00:23;3.80;;;3.20;;
948;SDS011;461;51.436;7.312;2023-10-31T02:03:02;5.57;;;2.83;;
948;SDS011;461;51.436;7.312;2023-10-31T02:05:34;3.40;;;3.00;;
948;SDS011;461;51.436;7.312;2023-10-31T02:10:49;5.33;;;2.60;;
948;SDS011;461;51.436;7.312;2023-10-31T02:13:16;4.33;;;3.20;;
948;SDS011;461;51.436;7.312;2023-10-31T02:15:48;3.40;;;3.10;;
948;SDS011;461;51.436;7.312;2023-10-31T02:18:18;3.33;;;2.70;;
948;SDS011;461;51.436;7.312;2023-10-31T02:20:47;4.23;;;3.00;;
948;SDS011;461;51.436;7.312;2023-10-31T02:23:40;3.40;;;3.00;;
948;SDS011;461;51.436;7.312;2023-10-31T02:26:06;3.37;;;2.33;;
948;SDS011;461;51.436;7.312;2023-10-31T02:28:35;3.10;;;2.80;;
948;SDS011;461;51.436;7.312;2023-10-31T02:31:03;3.47;;;2.53;;
948;SDS011;461;51.436;7.312;2023-10-31T02:33:32;3.40;;;2.40;;
948;SDS011;461;51.436;7.312;2023-10-31T02:36:01;5.23;;;3.20;;
948;SDS011;461;51.436;7.312;2023-10-31T02:38:30;3.10;;;2.30;;
948;SDS011;461;51.436;7.312;2023-10-31T02:40:56;2.73;;;2.23;;
948;SDS011;461;51.436;7.312;2023-10-31T02:43:25;2.30;;;2.10;;
948;SDS011;461;51.436;7.312;2023-10-31T02:46:14;2.77;;;2.07;;
948;SDS011;461;51.436;7.312;2023-10-31T02:48:53;3.97;;;2.90;;
948;SDS011;461;51.436;7.312;2023-10-31T02:51:22;3.20;;;2.23;;
948;SDS011;461;51.436;7.312;2023-10-31T02:56:48;2.40;;;2.10;;
948;SDS011;461;51.436;7.312;2023-10-31T03:02:04;2.40;;;2.10;;
948;SDS011;461;51.436;7.312;2023-10-31T03:04:42;1.97;;;1.87;;
948;SDS011;461;51.436;7.312;2023-10-31T03:07:19;2.63;;;2.10;;
948;SDS011;461;51.436;7.312;2023-10-31T03:09:55;2.53;;;2.30;;
948;SDS011;461;51.436;7.312;2023-10-31T03:12:37;3.27;;;2.93;;
948;SDS011;461;51.436;7.312;2023-10-31T03:15:30;4.63;;;3.00;;
948;SDS011;461;51.436;7.312;2023-10-31T03:18:01;4.23;;;3.73;;
948;SDS011;461;51.436;7.312;2023-10-31T03:20:33;3.83;;;3.13;;
948;SDS011;461;51.436;7.312;2023-10-31T03:23:08;5.93;;;3.87;;
948;SDS011;461;51.436;7.312;2023-10-31T03:25:43;4.50;;;3.73;;
948;SDS011;461;51.436;7.312;2023-10-31T03:28:19;5.60;;;4.00;;
948;SDS011;461;51.436;7.312;2023-10-31T10:13:04;4.60;;;3.20;;
948;SDS011;461;51.436;7.312;2023-10-31T10:15:30;5.80;;;4.30;;
948;SDS011;461;51.436;7.312;2023-10-31T10:18:10;5.77;;;3.60;;
948;SDS011;461;51.436;7.312;2023-10-31T10:20:56;7.57;;;3.80;;
948;SDS011;461;51.436;7.312;2023-10-31T10:23:23;5.27;;;3.80;;
948;SDS011;461;51.436;7.312;2023-10-31T10:46:34;5.40;;;4.37;;
948;SDS011;461;51.436;7.312;2023-10-31T10:49:05;8.17;;;4.30;;
948;SDS011;461;51.436;7.312;2023-10-31T13:24:28;2.13;;;1.47;;
948;SDS011;461;51.436;7.312;2023-10-31T13:26:54;7.00;;;1.70;;
948;SDS011;461;51.436;7.312;2023-10-31T13:29:20;3.20;;;1.93;;
948;SDS011;461;51.436;7.312;2023-10-31T13:31:47;3.47;;;1.73;;
948;SDS011;461;51.436;7.312;2023-10-31T13:34:13;1.97;;;1.67;;
948;SDS011;461;51.436;7.312;2023-10-31T13:36:39;6.20;;;2.27;;
948;SDS011;461;51.436;7.312;2023-10-31T13:39:05;3.53;;;1.97;;
948;SDS011;461;51.436;7.312;2023-10-31T13:41:31;2.73;;;1.93;;
948;SDS011;461;51.436;7.312;2023-10-31T13:43:57;2.93;;;1.87;;
948;SDS011;461;51.436;7.312;2023-10-31T13:46:23;5.00;;;1.80;;
948;SDS011;461;51.436;7.312;2023-10-31T13:48:50;7.27;;;2.03;;
948;SDS011;461;51.436;7.312;2023-10-31T13:51:16;2.40;;;1.80;;
948;SDS011;461;51.436;7.312;2023-10-31T13:53:42;4.17;;;1.97;;
948;SDS011;461;51.436;7.312;2023-10-31T13:56:09;3.30;;;1.90;;
948;SDS011;461;51.436;7.312;2023-10-31T13:58:35;2.50;;;1.60;;
948;SDS011;461;51.436;7.312;2023-10-31T14:01:01;3.40;;;2.17;;
948;SDS011;461;51.436;7.312;2023-10-31T14:03:27;1.50;;;1.23;;
948;SDS011;461;51.436;7.312;2023-10-31T14:05:53;3.73;;;2.30;;
948;SDS011;461;51.436;7.312;2023-10-31T14:08:20;2.90;;;1.93;;
948;SDS011;461;51.436;7.312;2023-10-31T14:10:46;2.43;;;1.83;;
948;SDS011;461;51.436;7.312;2023-10-31T14:13:13;7.07;;;2.00;;
948;SDS011;461;51.436;7.312;2023-10-31T15:56:56;6.93;;;2.23;;
948;SDS011;461;51.436;7.312;2023-10-31T15:59:22;3.80;;;1.73;;
948;SDS011;461;51.436;7.312;2023-10-31T16:15:23;4.03;;;1.87;;
948;SDS011;461;51.436;7.312;2023-10-31T16:18:21;5.77;;;1.93;;
948;SDS011;461;51.436;7.312;2023-10-31T16:20:53;3.30;;;2.00;;
948;SDS011;461;51.436;7.312;2023-10-31T16:32:30;3.53;;;2.50;;
948;SDS011;461;51.436;7.312;2023-10-31T16:34:56;2.20;;;1.70;;
948;SDS011;461;51.436;7.312;2023-10-31T16:37:31;3.37;;;1.90;;
948;SDS011;461;51.436;7.312;2023-10-31T16:40:00;3.13;;;1.80;;
948;SDS011;461;51.436;7.312;2023-10-31T16:42:26;8.03;;;2.20;;
948;SDS011;461;51.436;7.312;2023-10-31T16:44:58;2.57;;;1.60;;
948;SDS011;461;51.436;7.312;2023-10-31T16:47:28;4.23;;;2.37;;
948;SDS011;461;51.436;7.312;2023-10-31T16:50:04;2.70;;;1.77;;
948;SDS011;461;51.436;7.312;2023-10-31T16:55:49;5.27;;;2.00;;
948;SDS011;461;51.436;7.312;2023-10-31T16:58:19;2.33;;;1.90;;
948;SDS011;461;51.436;7.312;2023-10-31T17:00:45;2.83;;;1.87;;
948;SDS011;461;51.436;7.312;2023-10-31T17:06:10;3.80;;;2.17;;
948;SDS011;461;51.436;7.312;2023-10-31T17:11:34;8.27;;;2.10;;
948;SDS011;461;51.436;7.312;2023-10-31T17:14:03;4.97;;;2.30;;
948;SDS011;461;51.436;7.312;2023-10-31T17:16:29;3.83;;;2.43;;
948;SDS011;461;51.436;7.312;2023-10-31T17:18:55;5.10;;;2.40;;
948;SDS011;461;51.436;7.312;2023-10-31T17:21:21;5.33;;;2.60;;
948;SDS011;461;51.436;7.312;2023-10-31T17:23:47;3.50;;;2.50;;
948;SDS011;461;51.436;7.312;2023-10-31T17:26:13;3.73;;;2.90;;
948;SDS011;461;51.436;7.312;2023-10-31T17:28:40;6.03;;;2.97;;
948;SDS011;461;51.436;7.312;2023-10-31T17:31:09;6.67;;;4.37;;
948;SDS011;461;51.436;7.312;2023-10-31T17:33:36;3.40;;;3.00;;
948;SDS011;461;51.436;7.312;2023-10-31T17:36:10;5.23;;;2.83;;
948;SDS011;461;51.436;7.312;2023-10-31T17:38:40;5.10;;;2.77;;
948;SDS011;461;51.436;7.312;2023-10-31T17:41:06;5.47;;;2.60;;
948;SDS011;461;51.436;7.312;2023-10-31T17:43:32;6.60;;;2.50;;
948;SDS011;461;51.436;7.312;2023-10-31T17:45:58;4.43;;;2.50;;
948;SDS011;461;51.436;7.312;2023-10-31T17:48:24;5.97;;;2.37;;
948;SDS011;461;51.436;7.312;2023-10-31T17:53:43;3.63;;;2.50;;
948;SDS011;461;51.436;7.312;2023-10-31T17:56:16;5.03;;;2.67;;
948;SDS011;461;51.436;7.312;2023-10-31T17:58:42;4.70;;;2.50;;
948;SDS011;461;51.436;7.312;2023-10-31T18:01:08;2.40;;;2.20;;
948;SDS011;461;51.436;7.312;2023-10-31T18:03:39;5.97;;;2.80;;
948;SDS011;461;51.436;7.312;2023-10-31T18:06:05;2.53;;;1.90;;
948;SDS011;461;51.436;7.312;2023-10-31T18:08:31;3.60;;;2.50;;
948;SDS011;461;51.436;7.312;2023-10-31T18:10:57;3.30;;;2.13;;
948;SDS011;461;51.436;7.312;2023-10-31T18:13:23;3.07;;;2.20;;
948;SDS011;461;51.436;7.312;2023-10-31T18:15:50;2.40;;;2.10;;
948;SDS011;461;51.436;7.312;2023-10-31T18:18:18;4.57;;;1.77;;
948;SDS011;461;51.436;7.312;2023-10-31T18:20:44;4.17;;;1.93;;
948;SDS011;461;51.436;7.312;2023-10-31T18:23:13;4.07;;;2.23;;
948;SDS011;461;51.436;7.312;2023-10-31T18:25:39;2.10;;;1.90;;
948;SDS011;461;51.436;7.312;2023-10-31T18:28:05;3.73;;;1.97;;
948;SDS011;461;51.436;7.312;2023-10-31T18:30:31;2.73;;;2.37;;
948;SDS011;461;51.436;7.312;2023-10-31T18:32:57;5.97;;;2.57;;
948;SDS011;461;51.436;7.312;2023-10-31T18:35:27;6.70;;;2.57;;
948;SDS011;461;51.436;7.312;2023-10-31T18:37:54;4.10;;;2.10;;
948;SDS011;461;51.436;7.312;2023-10-31T18:40:21;2.63;;;2.10;;
948;SDS011;461;51.436;7.312;2023-10-31T18:42:47;3.37;;;2.80;;
948;SDS011;461;51.436;7.312;2023-10-31T18:45:13;3.30;;;2.07;;
948;SDS011;461;51.436;7.312;2023-10-31T18:47:40;3.20;;;2.53;;
948;SDS011;461;51.436;7.312;2023-10-31T18:50:09;4.93;;;2.37;;
948;SDS011;461;51.436;7.312;2023-10-31T18:52:38;7.20;;;3.50;;
948;SDS011;461;51.436;7.312;2023-10-31T18:55:04;3.20;;;2.80;;
948;SDS011;461;51.436;7.312;2023-10-31T18:57:30;4.10;;;3.23;;
948;SDS011;461;51.436;7.312;2023-10-31T18:59:56;5.07;;;3.03;;
948;SDS011;461;51.436;7.312;2023-10-31T19:02:23;4.73;;;2.50;;
948;SDS011;461;51.436;7.312;2023-10-31T19:04:49;3.33;;;3.00;;
948;SDS011;461;51.436;7.312;2023-10-31T19:07:15;4.90;;;3.10;;
948;SDS011;461;51.436;7.312;2023-10-31T19:09:41;3.10;;;2.70;;
948;SDS011;461;51.436;7.312;2023-10-31T19:12:07;3.87;;;3.17;;
948;SDS011;461;51.436;7.312;2023-10-31T19:14:47;3.73;;;2.70;;
948;SDS011;461;51.436;7.312;2023-10-31T19:17:13;5.90;;;3.80;;
948;SDS011;461;51.436;7.312;2023-10-31T19:22:38;5.97;;;3.77;;
948;SDS011;461;51.436;7.312;2023-10-31T19:25:04;6.00;;;3.73;;
948;SDS011;461;51.436;7.312;2023-10-31T19:27:36;4.87;;;3.43;;
948;SDS011;461;51.436;7.312;2023-10-31T19:30:06;5.63;;;3.43;;
948;SDS011;461;51.436;7.312;2023-10-31T19:32:33;5.60;;;3.80;;
948;SDS011;461;51.436;7.312;2023-10-31T19:35:00;4.53;;;3.70;;
948;SDS011;461;51.436;7.312;2023-10-31T19:37:30;5.00;;;3.87;;
948;SDS011;461;51.436;7.312;2023-10-31T19:39:56;5.20;;;4.27;;
948;SDS011;461;51.436;7.312;2023-10-31T19:42:41;6.33;;;4.13;;
948;SDS011;461;51.436;7.312;2023-10-31T19:45:16;4.93;;;3.60;;
948;SDS011;461;51.436;7.312;2023-10-31T19:47:42;4.83;;;4.03;;
948;SDS011;461;51.436;7.312;2023-10-31T19:50:13;4.60;;;3.93;;
948;SDS011;461;51.436;7.312;2023-10-31T19:52:42;7.93;;;3.40;;
948;SDS011;461;51.436;7.312;2023-10-31T19:55:08;8.43;;;3.90;;
948;SDS011;461;51.436;7.312;2023-10-31T19:57:34;5.57;;;3.90;;
948;SDS011;461;51.436;7.312;2023-10-31T20:00:00;4.40;;;3.87;;
948;SDS011;461;51.436;7.312;2023-10-31T20:02:26;4.57;;;3.50;;
948;SDS011;461;51.436;7.312;2023-10-31T20:04:52;6.27;;;3.43;;
948;SDS011;461;51.436;7.312;2023-10-31T20:07:18;7.90;;;4.87;;
948;SDS011;461;51.436;7.312;2023-10-31T20:09:44;8.73;;;4.10;;
948;SDS011;461;51.436;7.312;2023-10-31T20:12:10;3.70;;;3.30;;
948;SDS011;461;51.436;7.312;2023-10-31T20:14:36;5.77;;;3.80;;
948;SDS011;461;51.436;7.312;2023-10-31T20:17:02;4.17;;;3.07;;
948;SDS011;461;51.436;7.312;2023-10-31T20:19:28;4.97;;;3.33;;
948;SDS011;461;51.436;7.312;2023-10-31T20:21:54;5.97;;;3.60;;
948;SDS011;461;51.436;7.312;2023-10-31T20:24:20;4.77;;;3.70;;
948;SDS011;461;51.436;7.312;2023-10-31T20:26:46;6.70;;;3.07;;
948;SDS011;461;51.436;7.312;2023-10-31T20:29:14;4.37;;;2.83;;
948;SDS011;461;51.436;7.312;2023-10-31T20:31:50;6.20;;;2.90;;
948;SDS011;461;51.436;7.312;2023-10-31T20:34:26;4.57;;;3.00;;
948;SDS011;461;51.436;7.312;2023-10-31T20:36:55;3.73;;;3.00;;
948;SDS011;461;51.436;7.312;2023-10-31T20:39:21;6.03;;;3.63;;
948;SDS011;461;51.436;7.312;2023-10-31T20:41:51;4.00;;;2.40;;
948;SDS011;461;51.436;7.312;2023-10-31T20:44:17;5.77;;;3.30;;
948;SDS011;461;51.436;7.312;2023-10-31T20:46:43;4.37;;;3.00;;
948;SDS011;461;51.436;7.312;2023-10-31T20:49:12;5.27;;;3.00;;
948;SDS011;461;51.436;7.312;2023-10-31T20:51:38;5.50;;;2.90;;
948;SDS011;461;51.436;7.312;2023-10-31T20:54:04;5.00;;;4.30;;
948;SDS011;461;51.436;7.312;2023-10-31T20:56:30;5.23;;;3.90;;
948;SDS011;461;51.436;7.312;2023-10-31T20:58:56;6.43;;;3.37;;
948;SDS011;461;51.436;7.312;2023-10-31T21:01:21;5.13;;;3.30;;
948;SDS011;461;51.436;7.312;2023-10-31T21:03:47;8.33;;;3.23;;
948;SDS011;461;51.436;7.312;2023-10-31T21:06:13;3.53;;;3.20;;
948;SDS011;461;51.436;7.312;2023-10-31T21:08:39;5.87;;;3.10;;
948;SDS011;461;51.436;7.312;2023-10-31T21:11:05;5.00;;;3.40;;
948;SDS011;461;51.436;7.312;2023-10-31T21:13:31;6.37;;;3.23;;
948;SDS011;461;51.436;7.312;2023-10-31T21:15:57;7.10;;;3.20;;
948;SDS011;461;51.436;7.312;2023-10-31T21:18:23;9.70;;;3.70;;
948;SDS011;461;51.436;7.312;2023-10-31T21:20:49;4.30;;;3.07;;
948;SDS011;461;51.436;7.312;2023-10-31T21:23:15;4.30;;;2.70;;
948;SDS011;461;51.436;7.312;2023-10-31T21:25:41;12.23;;;3.40;;
948;SDS011;461;51.436;7.312;2023-10-31T21:28:08;3.93;;;2.70;;
948;SDS011;461;51.436;7.312;2023-10-31T21:30:34;6.77;;;3.13;;
948;SDS011;461;51.436;7.312;2023-10-31T21:33:00;5.50;;;2.63;;
948;SDS011;461;51.436;7.312;2023-10-31T21:35:26;9.03;;;3.30;;
948;SDS011;461;51.436;7.312;2023-10-31T21:37:53;5.33;;;3.20;;
948;SDS011;461;51.436;7.312;2023-10-31T21:40:19;7.70;;;3.47;;
948;SDS011;461;51.436;7.312;2023-10-31T21:42:45;10.40;;;3.20;;
948;SDS011;461;51.436;7.312;2023-10-31T21:45:11;8.23;;;3.23;;
948;SDS011;461;51.436;7.312;2023-10-31T21:47:37;4.60;;;2.53;;
948;SDS011;461;51.436;7.312;2023-10-31T21:50:04;3.13;;;2.80;;
948;SDS011;461;51.436;7.312;2023-10-31T21:52:30;5.10;;;3.03;;
948;SDS011;461;51.436;7.312;2023-10-31T21:54:56;6.03;;;2.67;;
948;SDS011;461;51.436;7.312;2023-10-31T21:57:22;3.40;;;2.57;;
948;SDS011;461;51.436;7.312;2023-10-31T21:59:49;10.07;;;2.83;;
948;SDS011;461;51.436;7.312;2023-10-31T22:02:15;4.50;;;3.00;;
948;SDS011;461;51.436;7.312;2023-10-31T22:04:42;7.13;;;3.00;;
948;SDS011;461;51.436;7.312;2023-10-31T22:07:10;4.80;;;3.13;;
948;SDS011;461;51.436;7.312;2023-10-31T22:09:36;5.00;;;2.90;;
948;SDS011;461;51.436;7.312;2023-10-31T22:12:02;8.70;;;3.20;;
948;SDS011;461;51.436;7.312;2023-10-31T22:14:29;9.60;;;3.07;;
948;SDS011;461;51.436;7.312;2023-10-31T22:16:55;4.27;;;2.40;;
948;SDS011;461;51.436;7.312;2023-10-31T22:19:21;8.10;;;2.80;;
948;SDS011;461;51.436;7.312;2023-10-31T22:21:47;4.10;;;2.80;;
948;SDS011;461;51.436;7.312;2023-10-31T22:24:13;4.77;;;2.73;;
948;SDS011;461;51.436;7.312;2023-10-31T22:26:39;6.87;;;2.67;;
948;SDS011;461;51.436;7.312;2023-10-31T22:29:06;5.20;;;2.70;;
948;SDS011;461;51.436;7.312;2023-10-31T22:31:32;5.40;;;2.70;;
948;SDS011;461;51.436;7.312;2023-10-31T22:34:01;7.07;;;2.40;;
948;SDS011;461;51.436;7.312;2023-10-31T22:36:27;4.60;;;3.07;;
948;SDS011;461;51.436;7.312;2023-10-31T22:38:53;6.30;;;2.77;;
948;SDS011;461;51.436;7.312;2023-10-31T22:41:19;6.43;;;3.20;;
948;SDS011;461;51.436;7.312;2023-10-31T22:43:45;3.93;;;2.50;;
948;SDS011;461;51.436;7.312;2023-10-31T22:46:10;8.03;;;3.13;;
948;SDS011;461;51.436;7.312;2023-10-31T22:48:36;9.60;;;3.43;;
948;SDS011;461;51.436;7.312;2023-10-31T22:51:02;4.33;;;2.40;;
948;SDS011;461;51.436;7.312;2023-10-31T22:53:28;13.53;;;2.60;;
948;SDS011;461;51.436;7.312;2023-10-31T22:55:55;8.77;;;3.17;;
948;SDS011;461;51.436;7.312;2023-10-31T22:58:21;6.70;;;2.70;;
948;SDS011;461;51.436;7.312;2023-10-31T23:00:47;3.93;;;2.67;;
948;SDS011;461;51.436;7.312;2023-10-31T23:03:13;6.73;;;3.07;;
948;SDS011;461;51.436;7.312;2023-10-31T23:05:40;5.87;;;2.30;;
948;SDS011;461;51.436;7.312;2023-10-31T23:08:08;6.70;;;2.93;;
948;SDS011;461;51.436;7.312;2023-10-31T23:10:34;9.07;;;2.87;;
948;SDS011;461;51.436;7.312;2023-10-31T23:13:00;5.90;;;2.33;;
948;SDS011;461;51.436;7.312;2023-10-31T23:15:26;6.30;;;2.63;;
948;SDS011;461;51.436;7.312;2023-10-31T23:17:52;7.10;;;2.67;;
948;SDS011;461;51.436;7.312;2023-10-31T23:20:18;4.60;;;2.57;;
948;SDS011;461;51.436;7.312;2023-10-31T23:22:45;3.53;;;2.63;;
948;SDS011;461;51.436;7.312;2023-10-31T23:25:11;5.70;;;2.47;;
948;SDS011;461;51.436;7.312;2023-10-31T23:27:37;4.40;;;2.37;;
948;SDS011;461;51.436;7.312;2023-10-31T23:30:06;3.27;;;2.27;;
948;SDS011;461;51.436;7.312;2023-10-31T23:32:33;7.90;;;2.73;;
948;SDS011;461;51.436;7.312;2023-10-31T23:34:59;7.93;;;3.00;;
948;SDS011;461;51.436;7.312;2023-10-31T23:37:25;4.63;;;2.30;;
948;SDS011;461;51.436;7.312;2023-10-31T23:39:51;3.67;;;2.40;;
948;SDS011;461;51.436;7.312;2023-10-31T23:42:17;8.90;;;3.00;;
948;SDS011;461;51.436;7.312;2023-10-31T23:44:43;5.63;;;2.43;;
948;SDS011;461;51.436;7.312;2023-10-31T23:47:08;5.37;;;2.40;;
948;SDS011;461;51.436;7.312;2023-10-31T23:49:34;7.53;;;3.00;;
948;SDS011;461;51.436;7.312;2023-10-31T23:54:40;8.33;;;3.17;;
948;SDS011;461;51.436;7.312;2023-10-31T23:57:06;4.60;;;2.87;;
948;SDS011;461;51.436;7.312;2023-10-31T23:59:32;6.50;;;2.77;;
